createdAt,value
2017-06-09T00:00:33.187Z,73.71
2017-06-09T00:01:13.659Z,73.28
2017-06-09T00:01:54.205Z,73.42
2017-06-09T00:02:34.697Z,73.38
2017-06-09T00:03:15.213Z,73.22
2017-06-09T00:03:55.685Z,73.22
2017-06-09T00:04:36.226Z,73.67
2017-06-09T00:05:16.720Z,73.77
2017-06-09T00:05:57.214Z,73.61
2017-06-09T00:06:37.693Z,73.32
2017-06-09T00:07:18.203Z,73.67
2017-06-09T00:07:58.656Z,74.09
2017-06-09T00:08:39.156Z,73.61
2017-06-09T00:09:19.694Z,73.86
2017-06-09T00:10:00.242Z,73.67
2017-06-09T00:10:40.723Z,73
2017-06-09T00:11:21.237Z,73
2017-06-09T00:12:01.791Z,73.28
2017-06-09T00:12:42.270Z,73.19
2017-06-09T00:13:22.770Z,73.77
2017-06-09T00:14:03.271Z,73.96
2017-06-09T00:14:43.745Z,73.99
2017-06-09T00:15:24.237Z,73.86
2017-06-09T00:16:04.753Z,73.67
2017-06-09T00:16:45.221Z,73.77
2017-06-09T00:17:25.679Z,74.05
2017-06-09T00:18:06.171Z,73.86
2017-06-09T00:18:46.710Z,74.05
2017-06-09T00:19:27.202Z,73.57
2017-06-09T00:20:07.698Z,73.57
2017-06-09T00:20:48.211Z,73.19
2017-06-09T00:21:28.770Z,73.77
2017-06-09T00:22:09.272Z,73.47
2017-06-09T00:22:49.731Z,73.09
2017-06-09T00:23:30.238Z,73
2017-06-09T00:24:10.729Z,73.09
2017-06-09T00:24:51.273Z,73.28
2017-06-09T00:25:31.726Z,73.09
2017-06-09T00:26:12.194Z,73.28
2017-06-09T00:26:52.708Z,73.28
2017-06-09T00:27:33.192Z,73
2017-06-09T00:28:13.661Z,73.19
2017-06-09T00:28:54.183Z,73.28
2017-06-09T00:29:34.659Z,73.86
2017-06-09T00:30:15.166Z,73.57
2017-06-09T00:30:55.646Z,73
2017-06-09T00:31:36.132Z,73.09
2017-06-09T00:32:16.660Z,73.19
2017-06-09T00:32:57.129Z,73.28
2017-06-09T00:33:37.629Z,73.28
2017-06-09T00:34:18.093Z,73.19
2017-06-09T00:34:58.595Z,73.09
2017-06-09T00:35:39.210Z,72.9
2017-06-09T00:36:19.706Z,72.9
2017-06-09T00:37:00.205Z,73
2017-06-09T00:37:40.705Z,73.28
2017-06-09T00:38:21.259Z,73.19
2017-06-09T00:39:01.720Z,73.47
2017-06-09T00:39:42.240Z,73.86
2017-06-09T00:40:22.787Z,73.38
2017-06-09T00:41:03.303Z,74.25
2017-06-09T00:41:43.751Z,73.86
2017-06-09T00:42:24.234Z,73.86
2017-06-09T00:43:04.758Z,73.67
2017-06-09T00:43:45.284Z,73.86
2017-06-09T00:44:25.833Z,73.86
2017-06-09T00:45:06.315Z,73.38
2017-06-09T00:45:46.817Z,73.57
2017-06-09T00:46:27.346Z,74.05
2017-06-09T00:47:07.806Z,74.05
2017-06-09T00:47:48.331Z,74.25
2017-06-09T00:48:28.852Z,73.77
2017-06-09T00:49:09.370Z,73.57
2017-06-09T00:49:49.871Z,73.67
2017-06-09T00:50:30.351Z,73.67
2017-06-09T00:51:10.855Z,73
2017-06-09T00:51:51.393Z,73.19
2017-06-09T00:52:31.865Z,73.28
2017-06-09T00:53:12.302Z,73.09
2017-06-09T00:53:52.847Z,72.52
2017-06-09T00:54:33.320Z,72.32
2017-06-09T00:55:13.819Z,72.52
2017-06-09T00:55:54.343Z,72.61
2017-06-09T00:56:34.805Z,71.65
2017-06-09T00:57:15.290Z,71.55
2017-06-09T00:57:55.801Z,71.36
2017-06-09T00:58:36.285Z,71.84
2017-06-09T00:59:16.801Z,72.03
2017-06-09T00:59:57.295Z,72.32
2017-06-09T01:00:37.777Z,72.71
2017-06-09T01:01:18.274Z,72.48
2017-06-09T01:01:58.804Z,72.8
2017-06-09T01:02:39.273Z,72.13
2017-06-09T01:03:19.765Z,72.86
2017-06-09T01:04:00.305Z,71.75
2017-06-09T01:04:40.835Z,72.71
2017-06-09T01:05:21.326Z,71.75
2017-06-09T01:06:01.849Z,72.13
2017-06-09T01:06:42.302Z,71.81
2017-06-09T01:07:22.809Z,72.03
2017-06-09T01:08:03.340Z,72.42
2017-06-09T01:08:43.763Z,71.84
2017-06-09T01:09:24.256Z,71.55
2017-06-09T01:10:04.760Z,71.84
2017-06-09T01:10:45.284Z,71.52
2017-06-09T01:11:25.742Z,71.55
2017-06-09T01:12:06.225Z,71.75
2017-06-09T01:12:46.712Z,72.03
2017-06-09T01:13:27.216Z,71.84
2017-06-09T01:14:07.726Z,71.61
2017-06-09T01:14:48.196Z,71.42
2017-06-09T01:15:28.699Z,71.52
2017-06-09T01:16:09.186Z,72.38
2017-06-09T01:16:49.683Z,71.61
2017-06-09T01:17:30.175Z,71.61
2017-06-09T01:18:10.655Z,72.09
2017-06-09T01:18:51.138Z,72.67
2017-06-09T01:19:31.643Z,72.29
2017-06-09T01:20:12.111Z,72.29
2017-06-09T01:20:52.667Z,72.67
2017-06-09T01:21:33.144Z,71.71
2017-06-09T01:22:13.626Z,72.09
2017-06-09T01:22:54.132Z,71.52
2017-06-09T01:23:34.625Z,72.48
2017-06-09T01:24:15.175Z,72.19
2017-06-09T01:24:55.618Z,72.29
2017-06-09T01:25:36.150Z,72.48
2017-06-09T01:26:16.617Z,71.61
2017-06-09T01:26:57.187Z,71.42
2017-06-09T01:27:37.630Z,71.91
2017-06-09T01:28:18.134Z,71.52
2017-06-09T01:28:58.634Z,72.67
2017-06-09T01:29:39.134Z,72.77
2017-06-09T01:30:19.602Z,72.48
2017-06-09T01:31:00.106Z,72.86
2017-06-09T01:31:40.590Z,72.86
2017-06-09T01:32:21.114Z,73.06
2017-06-09T01:33:01.632Z,73.15
2017-06-09T01:33:42.111Z,73.54
2017-06-09T01:34:22.609Z,73.06
2017-06-09T01:35:03.091Z,72.96
2017-06-09T01:35:43.605Z,73.44
2017-06-09T01:36:24.048Z,73.83
2017-06-09T01:37:04.586Z,73.83
2017-06-09T01:37:45.053Z,73.73
2017-06-09T01:38:25.588Z,73.73
2017-06-09T01:39:06.079Z,74.02
2017-06-09T01:39:46.543Z,73.54
2017-06-09T01:40:27.041Z,73.83
2017-06-09T01:41:07.542Z,74.11
2017-06-09T01:41:48.044Z,74.11
2017-06-09T01:42:28.546Z,74.11
2017-06-09T01:43:09.043Z,74.6
2017-06-09T01:43:49.545Z,73.83
2017-06-09T01:44:30.039Z,74.5
2017-06-09T01:45:10.553Z,74.37
2017-06-09T01:45:51.043Z,74.46
2017-06-09T01:46:31.548Z,74.46
2017-06-09T01:47:12.068Z,74.27
2017-06-09T01:47:52.570Z,74.6
2017-06-09T01:48:33.070Z,74.11
2017-06-09T01:49:13.591Z,74.5
2017-06-09T01:49:54.123Z,74.4
2017-06-09T01:50:34.567Z,74.65
2017-06-09T01:51:15.076Z,73.73
2017-06-09T01:51:55.577Z,73.83
2017-06-09T01:52:36.069Z,74.37
2017-06-09T01:53:16.574Z,74.37
2017-06-09T01:53:57.158Z,74.27
2017-06-09T01:54:37.508Z,74.3
2017-06-09T01:55:18.027Z,74.4
2017-06-09T01:55:58.503Z,74.4
2017-06-09T01:56:39.028Z,74.27
2017-06-09T01:57:19.528Z,74.79
2017-06-09T01:58:00.002Z,75.07
2017-06-09T01:58:40.517Z,75.04
2017-06-09T01:59:21.022Z,74.75
2017-06-09T02:00:01.532Z,75.13
2017-06-09T02:00:41.999Z,75.27
2017-06-09T02:01:22.523Z,75.23
2017-06-09T02:02:03.010Z,75.32
2017-06-09T02:02:43.559Z,75.32
2017-06-09T02:03:24.029Z,75.13
2017-06-09T02:04:04.502Z,75.32
2017-06-09T02:04:45.032Z,75.62
2017-06-09T02:05:25.510Z,75.71
2017-06-09T02:06:05.968Z,75.04
2017-06-09T02:06:46.471Z,75.04
2017-06-09T02:07:26.926Z,75.13
2017-06-09T02:08:07.430Z,75.52
2017-06-09T02:08:47.931Z,75.04
2017-06-09T02:09:28.527Z,75.23
2017-06-09T02:10:09.012Z,75.23
2017-06-09T02:10:49.502Z,75.23
2017-06-09T02:11:30.127Z,75.52
2017-06-09T02:12:10.691Z,75.04
2017-06-09T02:12:51.122Z,75.23
2017-06-09T02:13:31.629Z,75.23
2017-06-09T02:14:12.128Z,75.32
2017-06-09T02:14:52.650Z,75.23
2017-06-09T02:15:33.124Z,75.23
2017-06-09T02:16:13.621Z,75.13
2017-06-09T02:16:55.042Z,75.13
2017-06-09T02:17:35.504Z,75.23
2017-06-09T02:18:15.987Z,75.32
2017-06-09T02:18:56.489Z,75.23
2017-06-09T02:19:37.019Z,75.04
2017-06-09T02:20:17.520Z,75.23
2017-06-09T02:20:58.124Z,75.23
2017-06-09T02:21:38.527Z,75.23
2017-06-09T02:22:19.008Z,75.04
2017-06-09T02:22:59.513Z,75.52
2017-06-09T02:23:39.979Z,75.23
2017-06-09T02:24:20.645Z,75.52
2017-06-09T02:25:01.172Z,75.32
2017-06-09T02:25:41.655Z,75.81
2017-06-09T02:26:22.170Z,75.42
2017-06-09T02:27:02.724Z,75.42
2017-06-09T02:27:43.222Z,75.71
2017-06-09T02:28:23.734Z,75.56
2017-06-09T02:29:04.214Z,75.62
2017-06-09T02:29:44.737Z,75.81
2017-06-09T02:30:25.224Z,75.62
2017-06-09T02:31:05.778Z,75.62
2017-06-09T02:31:46.227Z,75.23
2017-06-09T02:32:26.763Z,75.32
2017-06-09T02:33:07.224Z,75.04
2017-06-09T02:33:47.775Z,75.23
2017-06-09T02:34:28.252Z,75.13
2017-06-09T02:35:08.748Z,75.23
2017-06-09T02:35:49.221Z,75.71
2017-06-09T02:36:29.763Z,75.23
2017-06-09T02:37:10.287Z,75.52
2017-06-09T02:37:50.769Z,75.32
2017-06-09T02:38:31.303Z,75.62
2017-06-09T02:39:11.769Z,75.62
2017-06-09T02:39:52.306Z,75.62
2017-06-09T02:40:32.771Z,75.32
2017-06-09T02:41:13.298Z,75.42
2017-06-09T02:41:53.758Z,75.32
2017-06-09T02:42:34.224Z,75.23
2017-06-09T02:43:14.722Z,75.42
2017-06-09T02:43:55.185Z,75.23
2017-06-09T02:44:35.678Z,75.52
2017-06-09T02:45:16.172Z,75.52
2017-06-09T02:45:56.677Z,75.04
2017-06-09T02:46:37.185Z,75.04
2017-06-09T02:47:17.670Z,75.04
2017-06-09T02:47:58.152Z,75.04
2017-06-09T02:48:38.678Z,75.52
2017-06-09T02:49:19.163Z,75.13
2017-06-09T02:49:59.685Z,75.32
2017-06-09T02:50:40.177Z,75.42
2017-06-09T02:51:20.658Z,75.42
2017-06-09T02:52:01.115Z,75.23
2017-06-09T02:52:41.679Z,75.23
2017-06-09T02:53:22.128Z,75.71
2017-06-09T02:54:02.648Z,75.04
2017-06-09T02:54:43.116Z,75.71
2017-06-09T02:55:23.823Z,75.52
2017-06-09T02:56:04.292Z,75.48
2017-06-09T02:56:44.763Z,75.48
2017-06-09T02:57:25.266Z,75.48
2017-06-09T02:58:05.809Z,75.57
2017-06-09T02:58:46.335Z,75.13
2017-06-09T02:59:26.823Z,75.67
2017-06-09T03:00:07.285Z,75.32
2017-06-09T03:00:47.771Z,75.67
2017-06-09T03:01:28.287Z,75
2017-06-09T03:02:08.789Z,75.38
2017-06-09T03:02:49.287Z,75.38
2017-06-09T03:03:29.752Z,75.87
2017-06-09T03:04:10.272Z,75.87
2017-06-09T03:04:50.852Z,75.57
2017-06-09T03:05:31.312Z,75.77
2017-06-09T03:06:11.789Z,75.38
2017-06-09T03:06:52.285Z,76.06
2017-06-09T03:07:32.749Z,76.29
2017-06-09T03:08:13.242Z,76.15
2017-06-09T03:08:53.786Z,75.77
2017-06-09T03:09:34.242Z,75.9
2017-06-09T03:10:14.703Z,75.9
2017-06-09T03:10:55.254Z,76
2017-06-09T03:11:35.855Z,75.77
2017-06-09T03:12:16.368Z,75.57
2017-06-09T03:12:56.870Z,75.57
2017-06-09T03:13:37.326Z,75.96
2017-06-09T03:14:17.793Z,76.15
2017-06-09T03:14:58.273Z,75.96
2017-06-09T03:15:38.792Z,75.87
2017-06-09T03:16:19.288Z,75.87
2017-06-09T03:16:59.760Z,76.06
2017-06-09T03:17:40.270Z,76.15
2017-06-09T03:18:20.761Z,75.62
2017-06-09T03:19:01.287Z,75.81
2017-06-09T03:19:41.804Z,75.38
2017-06-09T03:20:22.331Z,75.62
2017-06-09T03:21:02.793Z,75.67
2017-06-09T03:21:43.274Z,75.23
2017-06-09T03:22:25.920Z,75.52
2017-06-09T03:23:06.457Z,75.81
2017-06-09T03:23:46.976Z,75.62
2017-06-09T03:24:27.425Z,75.71
2017-06-09T03:25:07.960Z,75.62
2017-06-09T03:25:48.517Z,75.48
2017-06-09T03:26:28.941Z,75.71
2017-06-09T03:27:09.436Z,75.71
2017-06-09T03:27:49.956Z,76.09
2017-06-09T03:28:30.491Z,75.42
2017-06-09T03:29:10.981Z,75.9
2017-06-09T03:29:51.479Z,75.62
2017-06-09T03:30:31.989Z,75.81
2017-06-09T03:31:12.439Z,75.52
2017-06-09T03:31:52.958Z,75.23
2017-06-09T03:32:33.464Z,75.23
2017-06-09T03:33:13.887Z,74.94
2017-06-09T03:33:54.501Z,75.52
2017-06-09T03:34:35.064Z,75.13
2017-06-09T03:35:15.521Z,75.13
2017-06-09T03:35:56.078Z,75.52
2017-06-09T03:36:36.559Z,75.23
2017-06-09T03:37:16.996Z,75.52
2017-06-09T03:37:57.544Z,74.94
2017-06-09T03:38:37.982Z,75.32
2017-06-09T03:39:18.524Z,75.62
2017-06-09T03:39:59.001Z,75.62
2017-06-09T03:40:39.604Z,75.62
2017-06-09T03:41:20.087Z,75.42
2017-06-09T03:42:00.661Z,75.52
2017-06-09T03:42:41.115Z,75.04
2017-06-09T03:43:21.565Z,75.62
2017-06-09T03:44:02.134Z,75.62
2017-06-09T03:44:42.618Z,75.71
2017-06-09T03:45:23.137Z,75.52
2017-06-09T03:46:03.635Z,75.71
2017-06-09T03:46:44.128Z,75.62
2017-06-09T03:47:24.614Z,75.71
2017-06-09T03:48:05.131Z,75.42
2017-06-09T03:48:45.573Z,75.96
2017-06-09T03:49:26.086Z,76.25
2017-06-09T03:50:06.594Z,76.06
2017-06-09T03:50:47.075Z,76.15
2017-06-09T03:51:27.555Z,76.34
2017-06-09T03:52:08.095Z,75.96
2017-06-09T03:52:48.591Z,75.77
2017-06-09T03:53:29.020Z,76.25
2017-06-09T03:54:09.517Z,76.4
2017-06-09T03:54:50.044Z,76.21
2017-06-09T03:55:30.503Z,77.08
2017-06-09T03:56:11.055Z,77.46
2017-06-09T03:56:51.513Z,77.9
2017-06-09T03:57:31.970Z,77.94
2017-06-09T03:58:12.474Z,77.94
2017-06-09T03:58:52.974Z,78.38
2017-06-09T03:59:33.451Z,78.19
2017-06-09T04:00:13.929Z,77.71
2017-06-09T04:00:54.508Z,76.94
2017-06-09T04:01:35.017Z,76.75
2017-06-09T04:02:15.555Z,76.94
2017-06-09T04:02:56.005Z,77.13
2017-06-09T04:03:36.522Z,76.75
2017-06-09T04:04:17.013Z,76.69
2017-06-09T04:04:57.552Z,76.4
2017-06-09T04:05:37.991Z,75.73
2017-06-09T04:06:18.466Z,75.35
2017-06-09T04:06:59.023Z,75.15
2017-06-09T04:07:39.506Z,74.81
2017-06-09T04:08:20.059Z,74.13
2017-06-09T04:09:00.509Z,73.08
2017-06-09T04:09:41.040Z,72.95
2017-06-09T04:10:21.516Z,72.69
2017-06-09T04:11:02.024Z,72.89
2017-06-09T04:11:42.522Z,72.6
2017-06-09T04:12:23.061Z,71.93
2017-06-09T04:13:03.524Z,71.45
2017-06-09T04:13:44.005Z,71.93
2017-06-09T04:14:24.508Z,71.03
2017-06-09T04:15:05.060Z,71.83
2017-06-09T04:15:45.570Z,71.41
2017-06-09T04:16:26.018Z,71.98
2017-06-09T04:17:06.517Z,71.7
2017-06-09T04:17:47.036Z,71.61
2017-06-09T04:18:27.475Z,71.8
2017-06-09T04:19:07.999Z,71.8
2017-06-09T04:19:48.504Z,71.31
2017-06-09T04:20:29.007Z,71.51
2017-06-09T04:21:09.738Z,71.51
2017-06-09T04:21:50.225Z,71.7
2017-06-09T04:22:30.730Z,71.41
2017-06-09T04:23:11.216Z,71.89
2017-06-09T04:23:51.723Z,71.51
2017-06-09T04:24:32.224Z,71.7
2017-06-09T04:25:12.767Z,72.08
2017-06-09T04:25:53.242Z,72.37
2017-06-09T04:26:33.705Z,72.47
2017-06-09T04:27:14.282Z,71.55
2017-06-09T04:27:54.843Z,71.45
2017-06-09T04:28:35.348Z,71.03
2017-06-09T04:29:15.906Z,70.74
2017-06-09T04:29:56.357Z,70.78
2017-06-09T04:30:36.865Z,70.87
2017-06-09T04:31:17.753Z,70.58
2017-06-09T04:31:58.301Z,70.2
2017-06-09T04:32:38.810Z,70.1
2017-06-09T04:33:19.281Z,69.62
2017-06-09T04:33:59.927Z,69.62
2017-06-09T04:34:40.457Z,69.91
2017-06-09T04:35:20.994Z,69.53
2017-06-09T04:36:01.479Z,69.66
2017-06-09T04:36:41.957Z,69.66
2017-06-09T04:37:22.448Z,69.37
2017-06-09T04:38:02.945Z,68.35
2017-06-09T04:38:43.415Z,66.88
2017-06-09T04:39:23.976Z,62.86
2017-06-09T04:40:04.479Z,58.06
2017-06-09T04:40:44.950Z,54.05
2017-06-09T04:41:25.431Z,53.35
2017-06-09T04:42:05.943Z,55.68
2017-06-09T04:42:46.424Z,57.1
2017-06-09T04:43:26.919Z,58.81
2017-06-09T04:44:07.424Z,59.55
2017-06-09T04:44:47.905Z,60.52
2017-06-09T04:45:28.434Z,61
2017-06-09T04:46:08.964Z,61.16
2017-06-09T04:46:49.482Z,62.32
2017-06-09T04:47:30.048Z,62
2017-06-09T04:48:10.555Z,62.87
2017-06-09T04:48:51.012Z,62.96
2017-06-09T04:49:31.502Z,63.25
2017-06-09T04:50:11.964Z,62.93
2017-06-09T04:50:52.479Z,63.99
2017-06-09T04:51:32.958Z,64.37
2017-06-09T04:52:13.471Z,63.89
2017-06-09T04:52:54.064Z,63.73
2017-06-09T04:53:34.554Z,63.15
2017-06-09T04:54:15.168Z,62.77
2017-06-09T04:54:55.553Z,63.34
2017-06-09T04:55:36.094Z,63.06
2017-06-09T04:56:16.518Z,63.15
2017-06-09T04:56:56.996Z,62.93
2017-06-09T04:57:37.542Z,63.34
2017-06-09T04:58:18.048Z,63.22
2017-06-09T04:58:58.452Z,63.41
2017-06-09T04:59:38.970Z,63.31
2017-06-09T05:00:19.496Z,63.31
2017-06-09T05:00:59.983Z,63.99
2017-06-09T05:01:40.466Z,64.28
2017-06-09T05:02:20.995Z,64.15
2017-06-09T05:03:01.522Z,64.43
2017-06-09T05:03:42.042Z,63.95
2017-06-09T05:04:22.546Z,64.25
2017-06-09T05:05:03.018Z,64.25
2017-06-09T05:05:43.539Z,63.76
2017-06-09T05:06:24.072Z,63.57
2017-06-09T05:07:04.502Z,63.28
2017-06-09T05:07:44.993Z,63.67
2017-06-09T05:08:25.566Z,63.09
2017-06-09T05:09:05.975Z,63.76
2017-06-09T05:09:46.492Z,63.95
2017-06-09T05:10:26.960Z,63.76
2017-06-09T05:11:07.463Z,63.09
2017-06-09T05:11:47.954Z,63.38
2017-06-09T05:12:28.430Z,63.76
2017-06-09T05:13:09.039Z,63.86
2017-06-09T05:13:49.594Z,64.25
2017-06-09T05:14:30.011Z,65.59
2017-06-09T05:15:10.498Z,63.67
2017-06-09T05:15:51.009Z,63.57
2017-06-09T05:16:31.744Z,64.34
2017-06-09T05:17:12.041Z,66.71
2017-06-09T05:17:52.551Z,68.29
2017-06-09T05:18:33.046Z,75.31
2017-06-09T05:19:13.592Z,75.49
2017-06-09T05:19:54.010Z,76.46
2017-06-09T05:20:34.908Z,75.49
2017-06-09T05:21:15.840Z,77.51
2017-06-09T05:21:56.511Z,74.44
2017-06-09T05:22:37.069Z,76.26
2017-06-09T05:23:17.736Z,73.99
2017-06-09T05:23:59.021Z,75.15
2017-06-09T05:24:51.123Z,77.56
2017-06-09T05:25:31.656Z,75.92
2017-06-09T05:26:12.732Z,73.32
2017-06-09T05:26:54.282Z,73.8
2017-06-09T05:27:34.765Z,75.05
2017-06-09T05:28:15.382Z,76.88
2017-06-09T05:28:55.924Z,76.01
2017-06-09T05:29:36.380Z,74.71
2017-06-09T05:30:16.933Z,74.61
2017-06-09T05:30:57.385Z,74.61
2017-06-09T05:31:37.872Z,67.87
2017-06-09T05:32:23.861Z,65.66
2017-06-09T05:33:04.405Z,70.76
2017-06-09T05:33:44.876Z,71.72
2017-06-09T05:34:25.431Z,70.56
2017-06-09T05:35:05.952Z,66.14
2017-06-09T05:35:46.429Z,68.41
2017-06-09T05:36:27.096Z,66.39
2017-06-09T05:37:07.678Z,66.78
2017-06-09T05:37:48.187Z,66.88
2017-06-09T05:38:28.681Z,66.81
2017-06-09T05:39:09.145Z,64.02
2017-06-09T05:39:49.629Z,66.81
2017-06-09T05:40:30.146Z,65.46
2017-06-09T05:41:10.628Z,65.46
2017-06-09T05:41:51.109Z,69.02
2017-06-09T05:42:31.669Z,67.87
2017-06-09T05:43:12.125Z,68.35
2017-06-09T05:43:52.759Z,73.07
2017-06-09T05:44:33.821Z,74.36
2017-06-09T05:45:13.736Z,71.08
2017-06-09T05:45:54.249Z,74.36
2017-06-09T05:46:34.882Z,72.53
2017-06-09T05:47:15.389Z,71.24
2017-06-09T05:47:55.887Z,70.7
2017-06-09T05:48:36.412Z,71.24
2017-06-09T05:49:16.865Z,71.24
2017-06-09T05:49:57.536Z,70.56
2017-06-09T05:50:38.004Z,71.24
2017-06-09T05:51:18.485Z,71.14
2017-06-09T05:51:59.011Z,69.12
2017-06-09T05:52:39.444Z,68.48
2017-06-09T05:53:20.115Z,67.03
2017-06-09T05:54:00.697Z,67.33
2017-06-09T05:54:41.147Z,66.78
2017-06-09T05:55:22.412Z,67.55
2017-06-09T05:56:03.229Z,66.3
2017-06-09T05:56:43.708Z,64.86
2017-06-09T05:57:24.290Z,66.39
2017-06-09T05:58:04.819Z,67.74
2017-06-09T05:58:45.265Z,65.91
2017-06-09T05:59:25.731Z,66.11
2017-06-09T06:00:06.305Z,66.49
2017-06-09T06:00:46.707Z,67.84
2017-06-09T06:01:27.240Z,68.32
2017-06-09T06:02:07.688Z,68.71
2017-06-09T06:02:48.660Z,66.52
2017-06-09T06:03:28.915Z,67
2017-06-09T06:04:09.390Z,65.66
2017-06-09T06:04:49.935Z,66.62
2017-06-09T06:05:30.411Z,65.72
2017-06-09T06:06:10.906Z,65.47
2017-06-09T06:06:51.432Z,63.63
2017-06-09T06:07:31.858Z,68.35
2017-06-09T06:08:12.540Z,68.65
2017-06-09T06:08:53.048Z,70.35
2017-06-09T06:09:33.548Z,67.49
2017-06-09T06:10:14.059Z,68.74
2017-06-09T06:10:54.560Z,67.58
2017-06-09T06:11:35.073Z,67.3
2017-06-09T06:12:15.486Z,66.72
2017-06-09T06:12:55.984Z,64.72
2017-06-09T06:13:36.541Z,66.94
2017-06-09T06:14:16.988Z,70.03
2017-06-09T06:14:57.489Z,68.49
2017-06-09T06:15:37.995Z,68.49
2017-06-09T06:16:18.453Z,71.22
2017-06-09T06:16:59.017Z,69.87
2017-06-09T06:17:39.442Z,69
2017-06-09T06:18:19.980Z,68.55
2017-06-09T06:19:00.658Z,70.97
2017-06-09T06:19:41.203Z,68.17
2017-06-09T06:20:21.707Z,70.29
2017-06-09T06:21:02.253Z,68.36
2017-06-09T06:21:42.786Z,70.29
2017-06-09T06:22:23.361Z,63.53
2017-06-09T06:23:03.832Z,58.42
2017-06-09T06:23:44.386Z,60.73
2017-06-09T06:24:24.776Z,63.34
2017-06-09T06:25:05.280Z,62.95
2017-06-09T06:25:45.811Z,64.72
2017-06-09T06:26:26.347Z,70.81
2017-06-09T06:27:06.819Z,73.48
2017-06-09T06:27:47.469Z,73.38
2017-06-09T06:28:28.069Z,71.1
2017-06-09T06:29:08.590Z,74.16
2017-06-09T06:29:49.028Z,73.67
2017-06-09T06:30:29.806Z,72.74
2017-06-09T06:31:10.247Z,73.32
2017-06-09T06:31:50.788Z,74.96
2017-06-09T06:32:31.343Z,74.77
2017-06-09T06:33:11.844Z,74.1
2017-06-09T06:33:52.545Z,70.42
2017-06-09T06:34:32.993Z,66.85
2017-06-09T06:35:13.605Z,67.04
2017-06-09T06:35:54.205Z,67.33
2017-06-09T06:36:34.773Z,68.2
2017-06-09T06:37:15.318Z,71.39
2017-06-09T06:37:55.731Z,68.3
2017-06-09T06:38:36.210Z,71.68
2017-06-09T06:39:16.720Z,71
2017-06-09T06:39:57.229Z,71.3
2017-06-09T06:40:37.722Z,69.94
2017-06-09T06:41:18.312Z,72.06
2017-06-09T06:41:58.768Z,69.94
2017-06-09T06:42:39.301Z,71.2
2017-06-09T06:43:20.001Z,73.61
2017-06-09T06:44:00.488Z,63.92
2017-06-09T06:44:40.984Z,65.27
2017-06-09T06:45:21.467Z,65.66
2017-06-09T06:46:01.988Z,66.72
2017-06-09T06:46:42.438Z,68.26
2017-06-09T06:47:23.020Z,68.84
2017-06-09T06:48:03.636Z,68.65
2017-06-09T06:48:44.112Z,66.91
2017-06-09T06:49:24.753Z,66.53
2017-06-09T06:50:05.273Z,65.85
2017-06-09T06:50:45.761Z,65.17
2017-06-09T06:51:26.287Z,64.4
2017-06-09T06:52:06.879Z,64.59
2017-06-09T06:52:47.376Z,65.95
2017-06-09T06:53:27.831Z,66.72
2017-06-09T06:54:08.351Z,66.69
2017-06-09T06:54:48.866Z,65.24
2017-06-09T06:55:29.402Z,64.28
2017-06-09T06:56:10.140Z,65.34
2017-06-09T06:56:50.638Z,65.08
2017-06-09T06:57:31.151Z,67.75
2017-06-09T06:58:11.673Z,71.61
2017-06-09T06:58:52.148Z,69.97
2017-06-09T06:59:32.624Z,69.87
2017-06-09T07:00:13.271Z,70.06
2017-06-09T07:00:53.659Z,69.58
2017-06-09T07:01:34.281Z,69.97
2017-06-09T07:02:14.745Z,70.94
2017-06-09T07:02:55.377Z,74.51
2017-06-09T07:03:35.880Z,73.83
2017-06-09T07:04:16.412Z,71.32
2017-06-09T07:04:56.872Z,68.71
2017-06-09T07:05:37.610Z,68.71
2017-06-09T07:06:18.090Z,66.59
2017-06-09T07:06:58.599Z,68.07
2017-06-09T07:07:39.130Z,69.04
2017-06-09T07:08:19.616Z,68.26
2017-06-09T07:09:00.101Z,67.3
2017-06-09T07:09:40.731Z,68.65
2017-06-09T07:10:21.258Z,69.71
2017-06-09T07:11:01.693Z,72.22
2017-06-09T07:11:42.186Z,72.8
2017-06-09T07:12:22.725Z,71.74
2017-06-09T07:13:03.206Z,72.13
2017-06-09T07:13:43.798Z,72.42
2017-06-09T07:14:24.437Z,70.9
2017-06-09T07:15:04.963Z,70.04
2017-06-09T07:15:45.466Z,71
2017-06-09T07:16:25.971Z,74.19
2017-06-09T07:17:06.475Z,73.52
2017-06-09T07:17:46.972Z,74
2017-06-09T07:18:27.439Z,71.88
2017-06-09T07:19:08.014Z,70.04
2017-06-09T07:19:48.517Z,70.32
2017-06-09T07:20:29.048Z,75.93
2017-06-09T07:21:09.574Z,74.96
2017-06-09T07:21:49.988Z,72.36
2017-06-09T07:22:30.544Z,68.68
2017-06-09T07:23:11.032Z,67.14
2017-06-09T07:23:51.557Z,73.03
2017-06-09T07:24:32.064Z,71.42
2017-06-09T07:25:12.532Z,72.2
2017-06-09T07:25:53.130Z,70.56
2017-06-09T07:26:33.657Z,69.3
2017-06-09T07:27:14.169Z,66.78
2017-06-09T07:27:54.679Z,64.27
2017-06-09T07:28:35.153Z,67.75
2017-06-09T07:29:15.718Z,71.36
2017-06-09T07:29:56.132Z,71.46
2017-06-09T07:30:36.808Z,73.59
2017-06-09T07:31:17.291Z,69.43
2017-06-09T07:31:57.834Z,67.88
2017-06-09T07:32:38.375Z,68.49
2017-06-09T07:33:18.820Z,68.69
2017-06-09T07:33:59.332Z,65.5
2017-06-09T07:34:40.227Z,62.04
2017-06-09T07:35:20.777Z,57.98
2017-06-09T07:36:01.390Z,58.07
2017-06-09T07:36:42.065Z,59.82
2017-06-09T07:37:22.530Z,62.92
2017-06-09T07:38:03.096Z,64.14
2017-06-09T07:38:43.536Z,59.89
2017-06-09T07:39:23.981Z,61.76
2017-06-09T07:40:04.641Z,64.07
2017-06-09T07:40:45.048Z,64.53
2017-06-09T07:41:25.536Z,63.31
2017-06-09T07:42:06.038Z,61.95
2017-06-09T07:42:46.489Z,61.76
2017-06-09T07:43:27.085Z,56.14
2017-06-09T07:44:07.605Z,55.94
2017-06-09T07:44:48.093Z,56.5
2017-06-09T07:45:28.655Z,56.5
2017-06-09T07:46:09.364Z,55.92
2017-06-09T07:46:49.861Z,54.75
2017-06-09T07:48:49.798Z,59.33
2017-06-09T07:49:30.385Z,64.24
2017-06-09T07:50:11.031Z,59.89
2017-06-09T07:50:51.405Z,58.34
2017-06-09T07:51:31.992Z,60.75
2017-06-09T07:52:12.806Z,60.75
2017-06-09T07:52:54.444Z,60.66
2017-06-09T07:53:34.780Z,59.89
2017-06-09T07:54:17.522Z,59.4
2017-06-09T07:56:34.059Z,61.66
2017-06-09T07:57:14.578Z,58.07
2017-06-09T07:57:55.083Z,55.07
2017-06-09T07:58:35.600Z,59.14
2017-06-09T07:59:16.131Z,62.46
2017-06-09T07:59:56.791Z,58.39
2017-06-09T08:00:37.228Z,62.27
2017-06-09T08:01:17.610Z,62.27
2017-06-09T08:01:58.377Z,63.17
2017-06-09T08:02:39.091Z,59.97
2017-06-09T08:03:19.566Z,58.81
2017-06-09T08:04:00.103Z,60.27
2017-06-09T08:04:40.637Z,60.49
2017-06-09T08:05:21.114Z,61.94
2017-06-09T08:06:01.674Z,62.98
2017-06-09T08:06:42.147Z,64.43
2017-06-09T08:07:22.615Z,65.5
2017-06-09T08:08:03.146Z,64.11
2017-06-09T08:08:43.822Z,62.95
2017-06-09T08:09:24.277Z,59.75
2017-06-09T08:10:04.792Z,60.72
2017-06-09T08:10:45.248Z,60.43
2017-06-09T08:11:25.791Z,63.92
2017-06-09T08:12:06.458Z,63.04
2017-06-09T08:12:46.919Z,59.27
2017-06-09T08:13:27.423Z,61.79
2017-06-09T08:14:07.863Z,63.53
2017-06-09T08:14:48.408Z,64.4
2017-06-09T08:15:29.101Z,62.95
2017-06-09T08:16:09.645Z,61.4
2017-06-09T08:16:50.134Z,56.36
2017-06-09T08:17:30.675Z,56.94
2017-06-09T08:18:11.129Z,55.1
2017-06-09T08:18:51.603Z,57.71
2017-06-09T08:19:32.104Z,57.71
2017-06-09T08:20:12.643Z,58.88
2017-06-09T08:20:53.126Z,61.21
2017-06-09T08:21:33.617Z,63.53
2017-06-09T08:22:14.092Z,62.75
2017-06-09T08:24:11.894Z,62.95
2017-06-09T08:24:52.443Z,63.21
2017-06-09T08:25:32.959Z,63.43
2017-06-09T08:26:13.436Z,58.88
2017-06-09T08:26:54.070Z,58.3
2017-06-09T08:27:34.479Z,57.23
2017-06-09T08:28:15.066Z,63.24
2017-06-09T08:29:43.964Z,62.49
2017-06-09T08:32:10.364Z,64.62
2017-06-09T08:32:50.898Z,64.53
2017-06-09T08:33:31.418Z,61.62
2017-06-09T08:34:11.959Z,62.4
2017-06-09T08:34:52.460Z,65.11
2017-06-09T08:35:32.980Z,62.98
2017-06-09T08:36:13.420Z,60.46
2017-06-09T08:36:53.902Z,64.82
2017-06-09T08:37:34.421Z,65.69
2017-06-09T08:38:14.985Z,65.01
2017-06-09T08:38:55.492Z,59.88
2017-06-09T08:39:35.971Z,63.37
2017-06-09T08:40:16.541Z,64.53
2017-06-09T08:40:56.967Z,63.37
2017-06-09T08:41:37.479Z,62.4
2017-06-09T08:42:17.990Z,63.37
2017-06-09T08:42:58.439Z,65.79
2017-06-09T08:43:39.034Z,62.1
2017-06-09T08:44:19.531Z,62.04
2017-06-09T08:45:00.022Z,59.81
2017-06-09T08:45:40.548Z,63.98
2017-06-09T08:46:21.011Z,60.49
2017-06-09T08:47:01.532Z,63.2
2017-06-09T08:47:41.992Z,61.07
2017-06-09T08:48:22.542Z,62.13
2017-06-09T08:49:03.033Z,60.58
2017-06-09T08:49:43.476Z,54.09
2017-06-09T08:50:24.018Z,56.9
2017-06-09T08:51:04.536Z,59.61
2017-06-09T08:51:45.040Z,62.43